Time;durP1;ratioP1;P1;durP2;ratioP2;P2;SDS_P1;SDS_P2;PMS_P1;PMS_P2;Temp;Humidity;BMP_temperature;BMP_pressure;BME280_temperature;BME280_humidity;BME280_pressure;Samples;Min_cycle;Max_cycle;Signal;HPM_P1;HPM_P2
2021/11/19 00:00:01;;;;;;;22.03;8.73;;;11.90;99.90;;;;;;5016384;28;20884;-51
2021/11/19 00:02:29;;;;;;;15.73;7.70;;;11.90;99.90;;;;;;5022056;28;20208;-54
2021/11/19 00:04:57;;;;;;;21.67;8.90;;;11.90;99.90;;;;;;5000061;28;20208;-55
2021/11/19 00:07:24;;;;;;;16.77;7.70;;;11.90;99.90;;;;;;5017557;28;20236;-53
2021/11/19 00:09:53;;;;;;;17.27;8.43;;;12.00;99.90;;;;;;5022674;28;20196;-52
2021/11/19 00:12:19;;;;;;;15.93;8.10;;;11.90;99.90;;;;;;5007565;28;20216;-52
2021/11/19 00:14:46;;;;;;;19.03;7.40;;;11.90;99.90;;;;;;5019741;28;20218;-47
2021/11/19 00:17:13;;;;;;;14.40;7.43;;;11.90;99.90;;;;;;5019584;28;20724;-54
2021/11/19 00:19:42;;;;;;;15.97;7.70;;;11.90;99.90;;;;;;5020312;28;20223;-53
2021/11/19 00:22:11;;;;;;;18.27;7.13;;;12.00;99.90;;;;;;5021758;28;20211;-51
2021/11/19 00:24:39;;;;;;;15.97;7.47;;;12.00;99.90;;;;;;5012937;28;20195;-52
2021/11/19 00:27:10;;;;;;;19.63;7.87;;;11.90;99.90;;;;;;5009370;28;20224;-54
2021/11/19 00:29:36;;;;;;;18.23;7.37;;;11.90;99.90;;;;;;5020029;28;20192;-52
2021/11/19 00:32:07;;;;;;;12.63;7.13;;;12.00;99.90;;;;;;5014796;28;20200;-54
2021/11/19 00:34:34;;;;;;;21.60;7.30;;;12.00;99.90;;;;;;5018132;28;20219;-51
2021/11/19 00:37:01;;;;;;;12.47;7.07;;;11.90;99.90;;;;;;5019362;28;20232;-50
2021/11/19 00:39:28;;;;;;;18.67;7.70;;;12.00;99.90;;;;;;5019876;28;20223;-50
2021/11/19 00:41:56;;;;;;;19.47;7.60;;;12.00;99.90;;;;;;5007297;28;20212;-51
2021/11/19 00:44:26;;;;;;;15.77;7.23;;;12.00;99.90;;;;;;5020509;28;20200;-50
2021/11/19 00:46:54;;;;;;;21.77;6.80;;;12.00;99.90;;;;;;5021140;28;20215;-50
2021/11/19 00:49:26;;;;;;;22.00;7.13;;;12.00;99.90;;;;;;5021494;28;20200;-52
2021/11/19 00:51:55;;;;;;;13.40;5.93;;;12.00;99.90;;;;;;5018055;28;20188;-54
2021/11/19 00:54:22;;;;;;;13.10;5.80;;;12.00;99.90;;;;;;5014223;28;20231;-52
2021/11/19 00:56:53;;;;;;;13.53;5.80;;;12.00;99.90;;;;;;5015087;28;20223;-50
2021/11/19 00:59:21;;;;;;;14.77;5.67;;;12.10;99.90;;;;;;5002783;28;20216;-51
2021/11/19 01:01:52;;;;;;;14.77;5.30;;;12.10;99.90;;;;;;5013594;28;20210;-51
2021/11/19 01:04:21;;;;;;;12.90;6.07;;;12.10;99.90;;;;;;5020875;28;20301;-53
2021/11/19 01:06:49;;;;;;;11.93;5.60;;;12.10;99.90;;;;;;5015414;28;20310;-53
2021/11/19 01:09:20;;;;;;;11.13;5.33;;;12.10;99.90;;;;;;5015634;28;20282;-54
2021/11/19 01:11:48;;;;;;;15.33;5.00;;;12.10;99.90;;;;;;5018127;28;20195;-52
2021/11/19 01:14:21;;;;;;;13.97;5.17;;;12.10;99.90;;;;;;5007266;28;20242;-54
2021/11/19 01:16:53;;;;;;;12.10;5.33;;;12.10;99.90;;;;;;5018981;28;20303;-52
2021/11/19 01:19:24;;;;;;;15.60;5.87;;;12.10;99.90;;;;;;5002210;28;20255;-54
2021/11/19 01:21:53;;;;;;;10.83;5.83;;;12.10;99.90;;;;;;5016778;28;20905;-52
2021/11/19 01:24:22;;;;;;;11.37;5.03;;;12.10;99.90;;;;;;5020523;28;20269;-55
2021/11/19 01:26:49;;;;;;;18.53;5.10;;;12.10;99.90;;;;;;5019309;28;20273;-53
2021/11/19 01:29:18;;;;;;;10.30;5.17;;;12.10;99.90;;;;;;5015353;28;20211;-52
2021/11/19 01:31:47;;;;;;;10.73;4.53;;;12.10;99.90;;;;;;5009989;28;20211;-50
2021/11/19 01:34:25;;;;;;;13.10;4.57;;;12.10;99.90;;;;;;5011856;28;20700;-53
2021/11/19 01:37:09;;;;;;;9.33;4.10;;;12.10;99.90;;;;;;5016095;28;20220;-54
2021/11/19 01:39:47;;;;;;;8.57;4.00;;;12.10;99.90;;;;;;5000154;28;20291;-48
2021/11/19 01:42:23;;;;;;;11.03;4.27;;;12.20;99.90;;;;;;5001880;28;20205;-50
2021/11/19 01:44:58;;;;;;;12.73;4.20;;;12.20;99.90;;;;;;5014687;28;20207;-52
2021/11/19 01:47:26;;;;;;;6.23;4.17;;;12.20;99.90;;;;;;5002689;28;20231;-53
2021/11/19 01:49:55;;;;;;;11.30;3.63;;;12.20;99.90;;;;;;5020428;28;20956;-52
2021/11/19 01:52:35;;;;;;;12.80;3.50;;;12.20;99.90;;;;;;5012133;28;20230;-52
2021/11/19 01:55:06;;;;;;;9.13;3.07;;;12.20;99.90;;;;;;5014419;28;20223;-51
2021/11/19 01:57:36;;;;;;;10.93;3.30;;;12.20;99.90;;;;;;5012338;28;20225;-50
2021/11/19 02:00:14;;;;;;;6.40;3.03;;;12.20;99.90;;;;;;5021766;28;20200;-50
2021/11/19 02:02:47;;;;;;;8.03;3.20;;;12.20;99.90;;;;;;5006666;28;20211;-52
2021/11/19 02:05:24;;;;;;;12.33;3.10;;;12.20;99.90;;;;;;5024306;28;20200;-52
2021/11/19 02:07:54;;;;;;;9.13;3.83;;;12.20;99.90;;;;;;5023385;28;20227;-52
2021/11/19 02:10:53;;;;;;;10.40;3.57;;;12.20;99.90;;;;;;5008921;28;20200;-53
2021/11/19 02:13:27;;;;;;;11.50;3.20;;;12.20;99.90;;;;;;5016194;28;20212;-50
2021/11/19 02:16:01;;;;;;;7.57;3.43;;;12.20;99.90;;;;;;5024061;28;20258;-52
2021/11/19 02:18:31;;;;;;;13.40;3.90;;;12.20;99.90;;;;;;5008597;28;20199;-50
2021/11/19 02:21:05;;;;;;;7.50;3.70;;;12.20;99.90;;;;;;5024067;28;20204;-54
2021/11/19 02:23:37;;;;;;;8.73;3.60;;;12.20;99.90;;;;;;5007662;28;20196;-51
2021/11/19 02:26:09;;;;;;;16.43;4.77;;;12.20;99.90;;;;;;5011552;28;20200;-51
2021/11/19 02:28:41;;;;;;;11.87;3.70;;;12.20;99.90;;;;;;5016242;28;20871;-50
2021/11/19 02:31:12;;;;;;;10.33;2.73;;;12.20;99.90;;;;;;5021792;28;20261;-52
2021/11/19 02:33:41;;;;;;;9.10;3.10;;;12.20;99.90;;;;;;5008918;28;20211;-52
2021/11/19 02:36:11;;;;;;;11.60;3.30;;;12.20;99.90;;;;;;5013937;28;20577;-51
2021/11/19 02:38:44;;;;;;;10.27;3.90;;;12.20;99.90;;;;;;5022829;28;20215;-50
2021/11/19 02:41:15;;;;;;;10.60;3.63;;;12.20;99.90;;;;;;5019373;28;20200;-52
2021/11/19 02:43:45;;;;;;;17.87;4.13;;;12.20;99.90;;;;;;5024574;28;20290;-50
2021/11/19 02:46:17;;;;;;;14.77;4.20;;;12.30;99.90;;;;;;5018940;28;20255;-50
2021/11/19 02:48:44;;;;;;;21.10;3.90;;;12.30;99.90;;;;;;5003243;28;20295;-50
2021/11/19 02:51:15;;;;;;;13.37;3.53;;;12.20;99.90;;;;;;5021078;28;20204;-55
2021/11/19 02:53:42;;;;;;;10.43;3.57;;;12.20;99.90;;;;;;5017213;28;20291;-48
2021/11/19 02:56:09;;;;;;;9.17;3.10;;;12.30;99.90;;;;;;5015813;28;20220;-53
2021/11/19 02:58:44;;;;;;;14.67;3.70;;;12.20;99.90;;;;;;5015869;28;20291;-52
2021/11/19 03:01:16;;;;;;;11.43;4.27;;;12.20;99.90;;;;;;5020644;28;20235;-51
2021/11/19 03:03:46;;;;;;;8.03;3.03;;;12.20;99.90;;;;;;4999708;28;20204;-48
2021/11/19 03:06:14;;;;;;;14.00;4.03;;;12.20;99.90;;;;;;5013342;28;20748;-49
2021/11/19 03:08:41;;;;;;;9.07;3.57;;;12.20;99.90;;;;;;5024255;28;20306;-49
2021/11/19 03:11:10;;;;;;;12.17;3.53;;;12.20;99.90;;;;;;5016503;28;20214;-53
2021/11/19 03:13:38;;;;;;;12.37;4.37;;;12.20;99.90;;;;;;5023029;28;20710;-48
2021/11/19 03:16:07;;;;;;;15.60;5.20;;;12.20;99.90;;;;;;5016692;28;20223;-50
2021/11/19 03:18:35;;;;;;;14.80;3.70;;;12.20;99.90;;;;;;5022110;28;20287;-50
2021/11/19 03:21:04;;;;;;;12.53;3.73;;;12.20;99.90;;;;;;5008189;28;20614;-51
2021/11/19 03:23:33;;;;;;;9.27;3.17;;;12.30;99.90;;;;;;5021947;28;20203;-48
2021/11/19 03:26:01;;;;;;;11.13;3.10;;;12.30;99.90;;;;;;5021455;28;20207;-53
2021/11/19 03:28:29;;;;;;;11.17;3.33;;;12.20;99.90;;;;;;5014695;28;20200;-50
2021/11/19 03:30:59;;;;;;;7.17;3.90;;;12.20;99.90;;;;;;5020144;28;20205;-51
2021/11/19 03:33:28;;;;;;;10.40;3.20;;;12.30;99.90;;;;;;5020508;28;20287;-52
2021/11/19 03:35:56;;;;;;;12.50;4.03;;;12.30;99.90;;;;;;5007555;28;20566;-52
2021/11/19 03:38:26;;;;;;;12.27;3.73;;;12.20;99.90;;;;;;5019495;28;20196;-47
2021/11/19 03:40:55;;;;;;;8.60;3.43;;;12.30;99.90;;;;;;5023003;28;20208;-51
2021/11/19 03:43:25;;;;;;;5.63;3.00;;;12.20;99.90;;;;;;5015152;28;20196;-53
2021/11/19 03:45:59;;;;;;;13.63;4.50;;;12.20;99.90;;;;;;5023464;28;20196;-52
2021/11/19 03:48:27;;;;;;;10.83;3.63;;;12.30;99.90;;;;;;5015244;28;20211;-48
2021/11/19 03:50:58;;;;;;;12.30;4.50;;;12.30;99.90;;;;;;5007319;28;20208;-53
2021/11/19 03:53:26;;;;;;;11.97;3.73;;;12.30;99.90;;;;;;5018980;28;20204;-49
2021/11/19 03:55:57;;;;;;;13.73;3.77;;;12.20;99.90;;;;;;5017766;28;20220;-53
2021/11/19 03:58:26;;;;;;;12.30;3.63;;;12.20;99.90;;;;;;5013799;28;20204;-52
2021/11/19 04:00:56;;;;;;;18.67;3.80;;;12.20;99.90;;;;;;5038722;28;20588;-51
2021/11/19 04:03:25;;;;;;;11.13;3.90;;;12.20;99.90;;;;;;5031307;28;20238;-48
2021/11/19 04:05:52;;;;;;;11.07;3.80;;;12.20;99.90;;;;;;5009927;28;20566;-52
2021/11/19 04:08:19;;;;;;;8.73;3.20;;;12.20;99.90;;;;;;5014948;28;20239;-48
2021/11/19 04:11:00;;;;;;;11.50;3.67;;;12.20;99.90;;;;;;5022279;28;20211;-50
2021/11/19 04:13:27;;;;;;;16.93;4.37;;;12.20;99.90;;;;;;5014920;28;20863;-50
2021/11/19 04:15:57;;;;;;;15.83;3.60;;;12.20;99.90;;;;;;5016519;28;20232;-53
2021/11/19 04:18:24;;;;;;;13.73;3.60;;;12.20;99.90;;;;;;5035528;28;20270;-53
2021/11/19 04:20:53;;;;;;;8.37;3.60;;;12.30;99.90;;;;;;5016633;28;20548;-54
2021/11/19 04:23:22;;;;;;;9.53;3.30;;;12.30;99.90;;;;;;5014761;28;20358;-54
2021/11/19 04:25:49;;;;;;;15.40;3.53;;;12.20;99.90;;;;;;5020606;28;20222;-55
2021/11/19 04:28:18;;;;;;;6.63;3.50;;;12.20;99.90;;;;;;5019905;28;20238;-51
2021/11/19 04:31:00;;;;;;;10.67;3.33;;;12.30;99.90;;;;;;5014392;28;20294;-50
2021/11/19 04:33:30;;;;;;;10.30;3.30;;;12.30;99.90;;;;;;5022556;28;20291;-50
2021/11/19 04:35:57;;;;;;;11.90;3.70;;;12.30;99.90;;;;;;5011038;28;20232;-54
2021/11/19 04:38:25;;;;;;;13.70;3.80;;;12.30;99.90;;;;;;5018146;28;20287;-50
2021/11/19 04:40:53;;;;;;;10.67;3.30;;;12.30;99.90;;;;;;5019141;28;20620;-53
2021/11/19 04:43:24;;;;;;;14.73;3.63;;;12.30;99.90;;;;;;5014487;28;20203;-49
2021/11/19 04:45:51;;;;;;;12.13;3.40;;;12.30;99.90;;;;;;5017194;28;20204;-52
2021/11/19 04:48:20;;;;;;;11.37;3.60;;;12.30;99.90;;;;;;5020433;28;20203;-53
2021/11/19 04:50:49;;;;;;;12.77;4.30;;;12.30;99.90;;;;;;5022214;28;20207;-52
2021/11/19 04:53:19;;;;;;;12.83;3.90;;;12.30;99.90;;;;;;5005228;28;20856;-53
2021/11/19 04:55:49;;;;;;;14.57;4.17;;;12.30;99.90;;;;;;5018877;28;20332;-53
2021/11/19 04:58:17;;;;;;;12.53;4.63;;;12.30;99.90;;;;;;5019301;28;20310;-51
2021/11/19 05:00:48;;;;;;;13.40;4.30;;;12.30;99.90;;;;;;5021486;28;20219;-52
2021/11/19 05:03:41;;;;;;;9.97;4.30;;;12.30;99.90;;;;;;5023921;28;20247;-51
2021/11/19 05:06:09;;;;;;;10.43;4.20;;;12.20;99.90;;;;;;5005079;28;20208;-50
2021/11/19 05:08:36;;;;;;;11.73;3.80;;;12.20;99.90;;;;;;5007952;28;20216;-51
2021/11/19 05:11:06;;;;;;;15.20;4.63;;;12.20;99.90;;;;;;5014129;28;20700;-52
2021/11/19 05:13:38;;;;;;;13.03;5.03;;;12.20;99.90;;;;;;5020688;28;20243;-51
2021/11/19 05:16:09;;;;;;;8.77;4.30;;;12.20;99.90;;;;;;5016818;28;20955;-53
2021/11/19 05:18:37;;;;;;;14.03;4.30;;;12.20;99.90;;;;;;5022089;28;20200;-51
2021/11/19 05:21:05;;;;;;;10.63;3.73;;;12.20;99.90;;;;;;5017512;28;20611;-50
2021/11/19 05:23:32;;;;;;;11.57;4.30;;;12.20;99.90;;;;;;5002001;28;20204;-52
2021/11/19 05:26:00;;;;;;;18.60;5.17;;;12.20;99.90;;;;;;5018459;28;20204;-51
2021/11/19 05:28:28;;;;;;;17.10;4.67;;;12.20;99.90;;;;;;5014560;28;20227;-54
2021/11/19 05:31:00;;;;;;;17.50;4.53;;;12.20;99.90;;;;;;5017799;28;20203;-54
2021/11/19 05:33:31;;;;;;;15.30;3.90;;;12.20;99.90;;;;;;5012417;28;20292;-53
2021/11/19 05:35:58;;;;;;;14.23;3.83;;;12.20;99.90;;;;;;5026555;28;20302;-51
2021/11/19 05:38:25;;;;;;;16.73;4.93;;;12.20;99.90;;;;;;5024827;28;20282;-49
2021/11/19 05:40:53;;;;;;;16.00;4.80;;;12.20;99.90;;;;;;5000925;28;20211;-51
2021/11/19 05:43:20;;;;;;;16.00;4.23;;;12.30;99.90;;;;;;5024073;28;20656;-51
2021/11/19 05:45:59;;;;;;;13.20;4.50;;;12.30;99.90;;;;;;5019484;28;20204;-53
2021/11/19 05:48:46;;;;;;;13.03;4.37;;;12.30;99.90;;;;;;5012344;28;20661;-52
2021/11/19 05:51:14;;;;;;;22.03;4.40;;;12.30;99.90;;;;;;5017356;28;20215;-48
2021/11/19 05:53:42;;;;;;;15.13;4.50;;;12.30;99.90;;;;;;5016938;28;20208;-48
2021/11/19 05:56:10;;;;;;;11.17;4.20;;;12.30;99.90;;;;;;5004016;28;20936;-50
2021/11/19 05:58:37;;;;;;;17.20;4.03;;;12.30;99.90;;;;;;5015825;28;20673;-47
2021/11/19 06:01:08;;;;;;;12.87;4.00;;;12.30;99.90;;;;;;5018299;28;20834;-53
2021/11/19 06:03:41;;;;;;;12.20;4.80;;;12.30;99.90;;;;;;5040382;28;20203;-53
2021/11/19 06:06:21;;;;;;;14.07;4.30;;;12.30;99.90;;;;;;5021503;28;20212;-47
2021/11/19 06:09:15;;;;;;;11.60;4.13;;;12.30;99.90;;;;;;5013561;28;20227;-49
2021/11/19 06:11:52;;;;;;;12.67;4.00;;;12.30;99.90;;;;;;5009527;28;20299;-53
2021/11/19 06:14:22;;;;;;;9.23;3.37;;;12.30;99.90;;;;;;5018995;28;20211;-48
2021/11/19 06:16:52;;;;;;;14.40;4.00;;;12.30;99.90;;;;;;5024197;28;20224;-53
2021/11/19 06:19:22;;;;;;;13.20;4.33;;;12.30;99.90;;;;;;5021536;28;20211;-54
2021/11/19 06:21:54;;;;;;;15.67;4.27;;;12.30;99.90;;;;;;5036275;28;20232;-55
2021/11/19 06:24:24;;;;;;;10.70;4.23;;;12.30;99.90;;;;;;5024321;28;20204;-51
2021/11/19 06:26:52;;;;;;;12.73;3.83;;;12.30;99.90;;;;;;5010617;28;20223;-53
2021/11/19 06:29:19;;;;;;;15.43;4.60;;;12.30;99.90;;;;;;5031337;28;20577;-51
2021/11/19 06:31:59;;;;;;;7.30;2.97;;;12.30;99.90;;;;;;5022960;28;20211;-54
2021/11/19 06:34:26;;;;;;;9.50;3.17;;;12.30;99.90;;;;;;5024792;28;20207;-54
2021/11/19 06:36:55;;;;;;;16.57;3.80;;;12.30;99.90;;;;;;5013079;28;20224;-54
2021/11/19 06:39:23;;;;;;;18.13;4.03;;;12.30;99.90;;;;;;5016698;28;20216;-54
2021/11/19 06:41:50;;;;;;;12.60;3.93;;;12.30;99.90;;;;;;5013824;28;20208;-55
2021/11/19 06:44:55;;;;;;;12.10;3.53;;;12.30;99.90;;;;;;5018336;28;20188;-53
2021/11/19 06:47:34;;;;;;;12.87;4.10;;;12.30;99.90;;;;;;5018914;28;20224;-52
2021/11/19 06:50:24;;;;;;;8.20;3.40;;;12.30;99.90;;;;;;5018950;28;20238;-55
2021/11/19 06:53:27;;;;;;;13.60;3.50;;;12.30;99.90;;;;;;5022506;28;20579;-55
2021/11/19 06:56:12;;;;;;;12.17;4.23;;;12.30;99.90;;;;;;5025726;28;20309;-55
2021/11/19 06:58:47;;;;;;;17.10;3.67;;;12.30;99.90;;;;;;5004545;28;20299;-53
2021/11/19 07:01:15;;;;;;;12.87;3.93;;;12.30;99.90;;;;;;5021247;28;20207;-51
2021/11/19 07:03:42;;;;;;;11.47;3.33;;;12.30;99.90;;;;;;5009255;28;21046;-54
2021/11/19 07:06:09;;;;;;;9.87;3.60;;;12.40;99.90;;;;;;5022629;28;20633;-52
2021/11/19 07:08:37;;;;;;;6.60;2.93;;;12.40;99.90;;;;;;5018693;28;20200;-52
2021/11/19 07:11:09;;;;;;;14.87;4.33;;;12.40;99.90;;;;;;5023064;28;20624;-50
2021/11/19 07:13:36;;;;;;;13.07;4.07;;;12.40;99.90;;;;;;5021729;28;20869;-49
2021/11/19 07:16:03;;;;;;;13.83;4.07;;;12.30;99.90;;;;;;5004165;28;20208;-52
2021/11/19 07:18:31;;;;;;;9.97;3.90;;;12.30;99.90;;;;;;5016486;28;20195;-53
2021/11/19 07:20:58;;;;;;;9.57;3.87;;;12.30;99.90;;;;;;5011230;28;20203;-53
2021/11/19 07:23:26;;;;;;;14.27;3.67;;;12.30;99.90;;;;;;5021931;28;20815;-51
2021/11/19 07:25:55;;;;;;;11.90;4.57;;;12.30;99.90;;;;;;5021052;28;20192;-52
2021/11/19 07:28:23;;;;;;;13.37;3.87;;;12.30;99.90;;;;;;5014822;28;20204;-51
2021/11/19 07:31:09;;;;;;;15.83;4.20;;;12.30;99.90;;;;;;5007251;28;20216;-50
2021/11/19 07:33:54;;;;;;;13.43;3.87;;;12.40;99.90;;;;;;5016034;28;20214;-53
2021/11/19 07:36:36;;;;;;;12.30;4.60;;;12.30;99.90;;;;;;5004543;28;20231;-53
2021/11/19 07:39:14;;;;;;;15.50;4.20;;;12.30;99.90;;;;;;5010191;28;20211;-54
2021/11/19 07:42:00;;;;;;;12.23;4.27;;;12.30;99.90;;;;;;4998102;28;20208;-52
2021/11/19 07:44:46;;;;;;;10.30;4.03;;;12.30;99.90;;;;;;4973339;28;20345;-53
2021/11/19 07:47:37;;;;;;;10.90;3.90;;;12.30;99.90;;;;;;4993567;28;20249;-54
2021/11/19 07:50:08;;;;;;;12.33;4.60;;;12.30;99.90;;;;;;5012042;28;20204;-50
2021/11/19 07:52:36;;;;;;;12.00;4.00;;;12.30;99.90;;;;;;5022454;28;20196;-54
2021/11/19 07:55:03;;;;;;;13.40;4.53;;;12.30;99.90;;;;;;5043440;28;20863;-53
2021/11/19 07:57:31;;;;;;;11.67;3.80;;;12.30;99.90;;;;;;5024857;28;20222;-50
2021/11/19 07:59:58;;;;;;;12.03;4.07;;;12.30;99.90;;;;;;5016208;28;20298;-50
2021/11/19 08:02:25;;;;;;;10.57;4.13;;;12.30;99.90;;;;;;5001038;28;20215;-51
2021/11/19 08:04:52;;;;;;;10.93;4.33;;;12.30;99.90;;;;;;5002596;28;20220;-51
2021/11/19 08:07:25;;;;;;;13.57;4.50;;;12.30;99.90;;;;;;5016533;28;20223;-50
2021/11/19 08:09:51;;;;;;;12.50;5.13;;;12.30;99.90;;;;;;5015216;28;20203;-53
2021/11/19 08:12:26;;;;;;;10.87;5.23;;;12.30;99.90;;;;;;5020993;28;20207;-49
2021/11/19 08:15:11;;;;;;;12.47;4.93;;;12.30;99.90;;;;;;5019638;28;20227;-49
2021/11/19 08:17:41;;;;;;;11.53;4.60;;;12.30;99.90;;;;;;5006136;28;20228;-52
2021/11/19 08:20:21;;;;;;;11.43;4.93;;;12.40;99.90;;;;;;5022740;28;20249;-50
2021/11/19 08:22:49;;;;;;;12.07;5.83;;;12.40;99.90;;;;;;5010648;28;20562;-54
2021/11/19 08:25:16;;;;;;;11.03;5.63;;;12.40;99.90;;;;;;5017501;28;20212;-53
2021/11/19 08:27:45;;;;;;;10.43;5.50;;;12.40;99.90;;;;;;5020812;28;20216;-55
2021/11/19 08:30:19;;;;;;;13.80;5.73;;;12.40;99.90;;;;;;5019273;28;20196;-50
2021/11/19 08:32:46;;;;;;;14.80;5.93;;;12.40;99.90;;;;;;4998687;28;20210;-53
2021/11/19 08:35:13;;;;;;;14.60;6.13;;;12.40;99.90;;;;;;5017996;28;20207;-51
2021/11/19 08:37:40;;;;;;;16.40;5.80;;;12.40;99.90;;;;;;5010910;28;20224;-50
2021/11/19 08:40:10;;;;;;;11.37;6.33;;;12.40;99.90;;;;;;5014132;28;20196;-53
2021/11/19 08:42:38;;;;;;;14.37;5.87;;;12.40;99.90;;;;;;5013038;28;20273;-49
2021/11/19 08:45:07;;;;;;;14.93;6.47;;;12.50;99.90;;;;;;5022428;28;20200;-52
2021/11/19 08:47:35;;;;;;;16.43;6.20;;;12.50;99.90;;;;;;5007166;28;20722;-51
2021/11/19 08:50:04;;;;;;;12.33;5.83;;;12.50;99.90;;;;;;5018038;28;20223;-51
2021/11/19 08:52:31;;;;;;;16.30;5.77;;;12.50;99.90;;;;;;5019224;28;20673;-51
2021/11/19 08:54:58;;;;;;;11.87;5.30;;;12.50;99.90;;;;;;5020037;28;20284;-53
2021/11/19 08:57:26;;;;;;;14.37;5.53;;;12.50;99.90;;;;;;5025046;28;20708;-51
2021/11/19 08:59:55;;;;;;;11.60;5.13;;;12.50;99.90;;;;;;5024899;28;20206;-50
2021/11/19 09:02:24;;;;;;;9.63;5.63;;;12.50;99.90;;;;;;5015748;28;20213;-49
2021/11/19 09:04:55;;;;;;;14.00;5.63;;;12.50;99.90;;;;;;5018983;28;20207;-50
2021/11/19 09:07:22;;;;;;;11.53;4.63;;;12.60;99.90;;;;;;5011067;28;20575;-52
2021/11/19 09:09:49;;;;;;;13.80;5.40;;;12.60;99.90;;;;;;5011379;28;20210;-53
2021/11/19 09:12:16;;;;;;;9.90;5.73;;;12.60;99.90;;;;;;5016248;28;20231;-52
2021/11/19 09:14:43;;;;;;;16.47;5.33;;;12.60;99.90;;;;;;5014106;28;20196;-50
2021/11/19 09:17:15;;;;;;;11.37;5.40;;;12.60;99.90;;;;;;5012085;28;20251;-52
2021/11/19 09:19:48;;;;;;;13.43;5.40;;;12.60;99.90;;;;;;5004694;28;20611;-50
2021/11/19 09:22:26;;;;;;;12.87;5.47;;;12.60;99.90;;;;;;5018300;28;20207;-50
2021/11/19 09:24:53;;;;;;;15.20;5.87;;;12.60;99.90;;;;;;5009670;28;20203;-52
2021/11/19 09:27:21;;;;;;;10.13;5.33;;;12.60;99.90;;;;;;5023327;28;20708;-53
2021/11/19 09:29:52;;;;;;;8.43;4.93;;;12.60;99.90;;;;;;5017969;28;20211;-52
2021/11/19 09:32:20;;;;;;;13.60;5.53;;;12.60;99.90;;;;;;5021183;28;20596;-53
2021/11/19 09:34:49;;;;;;;11.43;5.77;;;12.60;99.90;;;;;;5003761;28;20208;-54
2021/11/19 09:37:19;;;;;;;14.20;5.43;;;12.60;99.90;;;;;;5019035;28;20224;-48
2021/11/19 09:39:48;;;;;;;10.37;5.73;;;12.60;99.90;;;;;;5014922;28;20192;-51
2021/11/19 09:42:26;;;;;;;10.23;5.50;;;12.60;99.90;;;;;;5020404;28;20208;-48
2021/11/19 09:45:22;;;;;;;11.53;5.50;;;12.70;99.90;;;;;;5017761;28;20279;-54
2021/11/19 09:48:12;;;;;;;11.30;4.93;;;12.70;99.90;;;;;;5018983;28;20239;-48
2021/11/19 09:51:25;;;;;;;8.50;5.33;;;12.70;99.90;;;;;;5005442;28;20212;-53
2021/11/19 09:54:26;;;;;;;8.20;4.63;;;12.70;99.90;;;;;;5016977;28;20208;-51
2021/11/19 09:57:13;;;;;;;8.07;5.13;;;12.70;99.90;;;;;;5007552;28;20228;-51
2021/11/19 09:59:43;;;;;;;10.63;5.50;;;12.70;99.90;;;;;;5014167;28;20204;-51
2021/11/19 10:02:40;;;;;;;8.57;4.80;;;12.70;99.90;;;;;;5014265;28;20208;-52
2021/11/19 10:05:41;;;;;;;8.33;5.20;;;12.70;99.90;;;;;;5007015;28;20209;-51
2021/11/19 10:08:35;;;;;;;8.97;5.13;;;12.70;99.90;;;;;;5018323;28;20228;-51
2021/11/19 10:11:11;;;;;;;10.97;5.93;;;12.70;99.90;;;;;;5000926;28;21036;-52
2021/11/19 10:14:04;;;;;;;9.47;5.80;;;12.70;99.90;;;;;;4993893;28;20203;-52
2021/11/19 10:16:42;;;;;;;11.43;5.30;;;12.70;99.90;;;;;;5008903;28;20494;-53
2021/11/19 10:19:12;;;;;;;9.23;4.80;;;12.70;99.90;;;;;;5020839;28;20300;-53
2021/11/19 10:21:47;;;;;;;9.77;5.03;;;12.70;99.90;;;;;;5005475;28;20212;-50
2021/11/19 10:24:25;;;;;;;8.63;4.90;;;12.70;99.90;;;;;;5022584;28;20207;-50
2021/11/19 10:26:53;;;;;;;9.27;4.37;;;12.70;99.90;;;;;;5025312;28;20231;-49
2021/11/19 10:29:23;;;;;;;11.77;4.63;;;12.70;99.90;;;;;;5015870;28;20207;-51
2021/11/19 10:31:51;;;;;;;6.47;4.20;;;12.80;99.90;;;;;;5018664;28;20209;-51
2021/11/19 10:34:24;;;;;;;9.07;4.57;;;12.80;99.90;;;;;;5009534;28;20893;-50
2021/11/19 10:37:03;;;;;;;8.77;4.57;;;12.80;99.90;;;;;;5014427;28;20230;-51
2021/11/19 10:40:10;;;;;;;7.47;4.57;;;12.80;99.90;;;;;;5021777;28;20195;-51
2021/11/19 10:43:08;;;;;;;7.57;4.57;;;12.80;99.90;;;;;;5025458;28;20203;-51
2021/11/19 10:46:05;;;;;;;9.10;5.10;;;12.80;99.90;;;;;;5021863;28;20915;-52
2021/11/19 10:48:59;;;;;;;7.47;5.20;;;12.80;99.90;;;;;;5018636;28;20195;-49
2021/11/19 10:51:45;;;;;;;8.33;5.37;;;12.80;99.90;;;;;;5003021;28;20219;-51
2021/11/19 10:54:35;;;;;;;8.07;5.47;;;12.80;99.90;;;;;;5018507;28;20204;-51
2021/11/19 10:57:15;;;;;;;8.93;4.60;;;12.70;99.90;;;;;;5017330;28;20223;-50
2021/11/19 11:00:04;;;;;;;9.13;4.40;;;12.80;99.90;;;;;;5018120;28;20274;-51
2021/11/19 11:02:37;;;;;;;8.87;4.80;;;12.80;99.90;;;;;;5018151;28;20996;-50
2021/11/19 11:05:26;;;;;;;6.40;4.70;;;12.80;99.90;;;;;;5013644;28;20223;-48
2021/11/19 11:08:07;;;;;;;9.13;4.97;;;12.80;99.90;;;;;;5019807;28;20232;-51
2021/11/19 11:10:38;;;;;;;9.00;5.20;;;12.80;99.90;;;;;;5023990;28;20231;-48
2021/11/19 11:13:22;;;;;;;7.40;4.27;;;12.80;99.90;;;;;;5019368;28;20223;-49
2021/11/19 11:15:56;;;;;;;11.27;6.27;;;12.80;99.90;;;;;;5026162;28;20929;-51
2021/11/19 11:18:26;;;;;;;7.97;5.03;;;12.80;99.90;;;;;;5018590;28;21037;-53
2021/11/19 11:21:18;;;;;;;8.73;4.53;;;12.90;99.90;;;;;;5013355;28;20222;-50
2021/11/19 11:24:03;;;;;;;11.97;4.60;;;12.90;99.90;;;;;;5021265;28;20215;-51
2021/11/19 11:26:44;;;;;;;9.47;4.10;;;12.90;99.90;;;;;;5019310;28;20314;-50
2021/11/19 11:29:35;;;;;;;13.57;4.27;;;12.90;99.90;;;;;;5019699;28;20278;-51
2021/11/19 11:32:16;;;;;;;9.10;4.30;;;12.90;99.90;;;;;;5020315;28;20207;-51
2021/11/19 11:34:59;;;;;;;10.27;3.60;;;12.90;99.90;;;;;;5017459;28;20208;-49
2021/11/19 11:37:54;;;;;;;7.77;3.60;;;12.90;99.90;;;;;;5004995;28;20234;-51
2021/11/19 11:40:27;;;;;;;7.77;3.93;;;12.90;99.90;;;;;;5019213;28;20905;-49
2021/11/19 11:43:14;;;;;;;7.83;3.30;;;12.90;99.90;;;;;;5016054;28;20208;-52
2021/11/19 11:45:44;;;;;;;8.07;3.70;;;12.90;99.90;;;;;;5025116;28;20192;-53
2021/11/19 11:48:23;;;;;;;10.10;3.70;;;12.90;99.90;;;;;;5011030;28;20239;-53
2021/11/19 11:50:59;;;;;;;9.57;3.80;;;12.90;99.90;;;;;;5010278;28;20801;-51
2021/11/19 11:53:30;;;;;;;10.93;3.90;;;13.00;99.90;;;;;;5009556;28;20214;-50
2021/11/19 11:56:14;;;;;;;5.73;3.43;;;13.00;99.90;;;;;;5008297;28;20211;-50
2021/11/19 11:58:48;;;;;;;6.10;3.40;;;13.00;99.90;;;;;;5012473;28;20591;-53
2021/11/19 12:01:27;;;;;;;11.50;3.67;;;13.00;99.90;;;;;;5013777;28;20200;-52
2021/11/19 12:03:58;;;;;;;10.80;4.57;;;13.00;99.90;;;;;;5013221;28;20191;-49
2021/11/19 12:06:35;;;;;;;6.23;3.40;;;13.00;99.90;;;;;;5025337;28;20219;-54
2021/11/19 12:09:07;;;;;;;10.27;3.97;;;13.00;99.90;;;;;;5006438;28;20223;-52
2021/11/19 12:11:51;;;;;;;10.37;4.00;;;13.00;99.90;;;;;;5019531;28;20204;-52
2021/11/19 12:14:40;;;;;;;13.17;4.60;;;13.00;99.90;;;;;;5019252;28;20203;-51
2021/11/19 12:17:14;;;;;;;6.53;3.20;;;13.00;99.90;;;;;;5021814;28;20228;-53
2021/11/19 12:19:46;;;;;;;12.90;3.33;;;13.10;99.90;;;;;;5017564;28;20207;-48
2021/11/19 12:22:17;;;;;;;12.27;3.53;;;13.10;99.90;;;;;;5017757;28;20204;-48
2021/11/19 12:24:52;;;;;;;11.33;3.20;;;13.00;99.90;;;;;;5004670;28;20212;-52
2021/11/19 12:27:33;;;;;;;8.40;3.17;;;13.00;99.90;;;;;;5014836;28;20230;-50
2021/11/19 12:30:12;;;;;;;9.33;3.00;;;13.00;99.90;;;;;;5014731;28;20258;-52
2021/11/19 12:32:43;;;;;;;13.23;3.63;;;13.00;99.90;;;;;;5019740;28;20196;-50
2021/11/19 12:35:24;;;;;;;12.60;3.07;;;13.00;99.90;;;;;;5018913;28;20192;-47
2021/11/19 12:38:03;;;;;;;16.47;3.33;;;13.00;99.90;;;;;;5011285;28;20231;-50
2021/11/19 12:40:36;;;;;;;10.70;2.30;;;13.00;99.90;;;;;;5006763;28;20586;-51
2021/11/19 12:43:18;;;;;;;5.63;2.87;;;13.00;99.90;;;;;;5004169;28;20200;-51
2021/11/19 12:45:52;;;;;;;12.87;3.03;;;13.00;99.90;;;;;;5018256;28;20586;-47
2021/11/19 12:48:35;;;;;;;10.00;3.10;;;13.00;99.90;;;;;;5020723;28;20211;-46
2021/11/19 12:51:14;;;;;;;7.40;2.40;;;13.00;99.90;;;;;;5017477;28;20200;-51
2021/11/19 12:53:48;;;;;;;14.83;3.33;;;13.00;99.90;;;;;;5024968;28;20249;-52
2021/11/19 12:56:20;;;;;;;8.20;2.20;;;13.00;99.90;;;;;;5006034;28;20204;-49
2021/11/19 12:58:49;;;;;;;11.03;2.97;;;13.00;99.90;;;;;;5017775;28;20220;-50
2021/11/19 13:01:34;;;;;;;6.57;2.33;;;13.00;99.90;;;;;;5021022;28;20286;-51
2021/11/19 13:04:21;;;;;;;8.53;2.57;;;13.00;99.90;;;;;;5021283;28;20218;-51
2021/11/19 13:06:56;;;;;;;14.27;2.90;;;13.00;99.90;;;;;;5014765;28;20228;-51
2021/11/19 13:09:56;;;;;;;12.53;3.00;;;13.00;99.90;;;;;;5007052;28;20208;-50
2021/11/19 13:13:05;;;;;;;11.80;2.93;;;13.00;99.90;;;;;;4954427;28;20373;-49